createdAt,value
2018-07-22T00:01:38.644Z,67.19
2018-07-22T00:02:38.926Z,67.58
2018-07-22T00:03:38.689Z,67.58
2018-07-22T00:04:38.714Z,67.58
2018-07-22T00:05:53.659Z,68.51
2018-07-22T00:06:39.023Z,68.32
2018-07-22T00:07:39.045Z,69.38
2018-07-22T00:08:39.169Z,68.99
2018-07-22T00:09:38.839Z,69.09
2018-07-22T00:10:39.123Z,70.05
2018-07-22T00:11:38.887Z,69.67
2018-07-22T00:12:39.168Z,69.67
2018-07-22T00:13:39.193Z,70.92
2018-07-22T00:15:39.244Z,71.11
2018-07-22T00:16:39.268Z,71.26
2018-07-22T00:17:39.295Z,71.26
2018-07-22T00:18:39.316Z,71.65
2018-07-22T00:19:39.342Z,71.65
2018-07-22T00:20:39.366Z,72.03
2018-07-22T00:21:39.392Z,71.84
2018-07-22T00:22:39.420Z,72.03
2018-07-22T00:23:39.444Z,72.42
2018-07-22T00:24:39.469Z,73.19
2018-07-22T00:25:39.488Z,72.71
2018-07-22T00:26:39.518Z,72.32
2018-07-22T00:27:39.540Z,72.03
2018-07-22T00:28:39.566Z,72.23
2018-07-22T00:29:39.589Z,72.13
2018-07-22T00:30:39.611Z,71.46
2018-07-22T00:31:39.640Z,71.65
2018-07-22T00:32:39.409Z,70.98
2018-07-22T00:33:39.689Z,71.36
2018-07-22T00:34:39.712Z,71.36
2018-07-22T00:35:39.738Z,71.84
2018-07-22T00:36:39.761Z,72.13
2018-07-22T00:37:54.448Z,72.8
2018-07-22T00:38:39.554Z,73.38
2018-07-22T00:39:39.833Z,72.8
2018-07-22T00:40:39.859Z,73.57
2018-07-22T00:41:39.885Z,73.47
2018-07-22T00:42:39.909Z,73.73
2018-07-22T00:43:39.930Z,74.21
2018-07-22T00:44:39.962Z,74.44
2018-07-22T00:45:39.988Z,74.11
2018-07-22T00:46:40.012Z,73.92
2018-07-22T00:47:40.034Z,73.47
2018-07-22T00:48:40.060Z,73.47
2018-07-22T00:49:40.087Z,73.38
2018-07-22T00:50:40.108Z,73.96
2018-07-22T00:51:40.127Z,73.47
2018-07-22T00:52:40.152Z,73.57
2018-07-22T00:53:54.841Z,74.4
2018-07-22T00:54:40.204Z,75.27
2018-07-22T00:55:39.971Z,75.56
2018-07-22T00:56:40.252Z,74.69
2018-07-22T00:57:40.279Z,74.79
2018-07-22T00:58:40.303Z,74.02
2018-07-22T00:59:40.324Z,74.5
2018-07-22T01:00:40.093Z,75.56
2018-07-22T01:01:40.375Z,75.75
2018-07-22T01:04:40.191Z,75.84
2018-07-22T01:05:40.472Z,76.14
2018-07-22T01:06:40.497Z,75.07
2018-07-22T01:07:40.523Z,75.07
2018-07-22T01:08:40.562Z,75.37
2018-07-22T01:09:55.236Z,75.37
2018-07-22T01:10:40.335Z,75.75
2018-07-22T01:11:40.620Z,75.56
2018-07-22T01:12:40.645Z,75.56
2018-07-22T01:13:40.672Z,75.84
2018-07-22T01:14:40.692Z,76.23
2018-07-22T01:15:40.717Z,76.32
2018-07-22T01:16:40.741Z,76.32
2018-07-22T01:17:40.766Z,76.61
2018-07-22T01:18:40.788Z,76.71
2018-07-22T01:20:40.839Z,76.42
2018-07-22T01:21:40.864Z,76.32
2018-07-22T01:22:40.635Z,76.9
2018-07-22T01:23:40.912Z,78.63
2018-07-22T01:24:40.938Z,79.3
2018-07-22T01:25:55.625Z,79.4
2018-07-22T01:26:40.985Z,79.27
2018-07-22T01:28:40.778Z,80.71
2018-07-22T01:29:41.060Z,80.9
2018-07-22T01:30:41.096Z,79.65
2018-07-22T01:32:41.131Z,79.65
2018-07-22T01:33:41.156Z,79.55
2018-07-22T01:34:41.187Z,78.98
2018-07-22T01:35:41.211Z,79.07
2018-07-22T01:36:41.244Z,78.92
2018-07-22T01:37:41.255Z,78.63
2018-07-22T01:38:41.286Z,79.11
2018-07-22T01:39:41.301Z,79.21
2018-07-22T01:40:55.991Z,80.42
2018-07-22T01:41:41.357Z,80.22
2018-07-22T01:42:41.375Z,79.84
2018-07-22T01:43:41.402Z,79.65
2018-07-22T01:44:41.427Z,80.32
2018-07-22T01:45:41.453Z,80.04
2018-07-22T01:46:41.473Z,79.84
2018-07-22T01:47:41.498Z,79.17
2018-07-22T01:48:41.535Z,79.07
2018-07-22T01:51:41.598Z,77.96
2018-07-22T01:52:41.364Z,78.21
2018-07-22T01:53:41.644Z,77.92
2018-07-22T01:54:41.414Z,78.11
2018-07-22T01:55:41.696Z,78.5
2018-07-22T01:56:41.728Z,78.21
2018-07-22T01:57:41.489Z,78.69
2018-07-22T01:58:41.509Z,80.71
2018-07-22T01:59:41.793Z,81.57
2018-07-22T02:00:41.822Z,81.96
2018-07-22T02:01:42.003Z,81.86
2018-07-22T02:02:41.864Z,82.05
2018-07-22T02:03:41.891Z,82.63
2018-07-22T02:04:41.914Z,82.92
2018-07-22T02:05:41.943Z,83.07
2018-07-22T02:07:41.992Z,82.68
2018-07-22T02:08:42.010Z,83.16
2018-07-22T02:09:42.143Z,83.16
2018-07-22T02:10:42.059Z,83.26
2018-07-22T02:11:42.081Z,83.16
2018-07-22T02:12:56.771Z,82.2
2018-07-22T02:13:42.132Z,82.2
2018-07-22T02:14:41.900Z,82.3
2018-07-22T02:15:42.179Z,82.2
2018-07-22T02:16:42.204Z,82.01
2018-07-22T02:17:42.230Z,82.2
2018-07-22T02:18:42.255Z,82.4
2018-07-22T02:19:42.278Z,82.1
2018-07-22T02:20:42.359Z,82.78
2018-07-22T02:22:42.349Z,83.8
2018-07-22T02:24:42.401Z,84.7
2018-07-22T02:25:42.423Z,84.47
2018-07-22T02:26:42.190Z,84.89
2018-07-22T02:27:42.472Z,83.41
2018-07-22T02:28:57.157Z,83.7
2018-07-22T02:29:42.264Z,83.7
2018-07-22T02:30:42.547Z,83.8
2018-07-22T02:31:42.568Z,84.47
2018-07-22T02:32:42.607Z,85.24
2018-07-22T02:33:42.618Z,85.42
2018-07-22T02:34:42.641Z,85.52
2018-07-22T02:35:42.671Z,85.42
2018-07-22T02:36:42.703Z,85.62
2018-07-22T02:37:42.457Z,85.14
2018-07-22T02:39:42.763Z,84.66
2018-07-22T02:40:42.786Z,84.75
2018-07-22T02:41:42.810Z,84.27
2018-07-22T02:42:42.836Z,84.95
2018-07-22T02:43:42.871Z,85.42
2018-07-22T02:44:57.543Z,85.91
2018-07-22T02:45:42.910Z,86.1
2018-07-22T02:46:42.934Z,86
2018-07-22T02:47:42.958Z,86.77
2018-07-22T02:48:42.980Z,86.38
2018-07-22T02:49:43.003Z,86.34
2018-07-22T02:50:43.028Z,86.34
2018-07-22T02:51:43.051Z,86.34
2018-07-22T02:52:43.135Z,86.72
2018-07-22T02:53:43.110Z,86.72
2018-07-22T02:54:43.123Z,86.72
2018-07-22T02:55:43.147Z,86.72
2018-07-22T02:56:43.178Z,86.92
2018-07-22T02:57:43.197Z,86.82
2018-07-22T02:58:43.224Z,86.44
2018-07-22T02:59:43.247Z,86.72
2018-07-22T03:00:57.930Z,85.77
2018-07-22T03:01:43.295Z,86
2018-07-22T03:02:43.315Z,85.52
2018-07-22T03:03:43.084Z,86.1
2018-07-22T03:04:43.365Z,86.1
2018-07-22T03:05:43.391Z,85.81
2018-07-22T03:06:43.412Z,85.91
2018-07-22T03:07:43.435Z,85.77
2018-07-22T03:08:43.467Z,86.34
2018-07-22T03:09:43.486Z,86
2018-07-22T03:10:43.509Z,85.81
2018-07-22T03:11:43.534Z,85.42
2018-07-22T03:12:43.562Z,85.62
2018-07-22T03:13:43.589Z,85.04
2018-07-22T03:14:43.613Z,85.33
2018-07-22T03:15:58.289Z,86.68
2018-07-22T03:16:43.396Z,86.87
2018-07-22T03:18:43.699Z,87.98
2018-07-22T03:19:43.728Z,88.26
2018-07-22T03:20:43.751Z,88.35
2018-07-22T03:21:43.773Z,89.03
2018-07-22T03:22:43.797Z,89.51
2018-07-22T03:23:43.819Z,88.84
2018-07-22T03:24:43.855Z,88.35
2018-07-22T03:25:43.613Z,88.74
2018-07-22T03:26:43.893Z,88.93
2018-07-22T03:27:43.918Z,88.74
2018-07-22T03:28:43.681Z,88.65
2018-07-22T03:29:43.964Z,88.93
2018-07-22T03:30:43.988Z,88.26
2018-07-22T03:31:44.015Z,88.31
2018-07-22T03:32:44.034Z,87.49
2018-07-22T03:33:44.060Z,87.73
2018-07-22T03:34:44.090Z,87.15
2018-07-22T03:35:44.111Z,87.54
2018-07-22T03:36:44.132Z,88.11
2018-07-22T03:37:43.898Z,88.31
2018-07-22T03:38:44.180Z,88.02
2018-07-22T03:39:44.204Z,88.11
2018-07-22T03:40:44.230Z,88.79
2018-07-22T03:41:44.250Z,88.45
2018-07-22T03:42:44.278Z,88.26
2018-07-22T03:43:44.042Z,88.59
2018-07-22T03:44:44.323Z,87.92
2018-07-22T03:45:44.347Z,88.21
2018-07-22T03:46:44.372Z,88.31
2018-07-22T03:47:59.058Z,87.63
2018-07-22T03:48:44.162Z,87.15
2018-07-22T03:49:44.447Z,87.35
2018-07-22T03:50:44.568Z,87.25
2018-07-22T03:51:44.498Z,87.15
2018-07-22T03:52:44.518Z,87.35
2018-07-22T03:53:44.539Z,87.15
2018-07-22T03:54:44.567Z,87.82
2018-07-22T03:55:44.586Z,88.4
2018-07-22T03:56:44.608Z,88.11
2018-07-22T03:58:44.659Z,88.21
2018-07-22T03:59:44.683Z,88.69
2018-07-22T04:00:44.708Z,88.4
2018-07-22T04:01:44.730Z,87.96
2018-07-22T04:02:44.756Z,88.11
2018-07-22T04:03:59.441Z,88.49
2018-07-22T04:04:44.804Z,87.68
2018-07-22T04:05:44.569Z,87.82
2018-07-22T04:06:44.853Z,87.35
2018-07-22T04:07:44.876Z,87.01
2018-07-22T04:08:44.904Z,86.72
2018-07-22T04:09:44.976Z,87.1
2018-07-22T04:10:44.947Z,87.01
2018-07-22T04:11:44.715Z,86.33
2018-07-22T04:12:44.998Z,85.57
2018-07-22T04:13:45.019Z,85.66
2018-07-22T04:14:45.044Z,85.66
2018-07-22T04:15:45.067Z,85.37
2018-07-22T04:16:45.098Z,85.32
2018-07-22T04:17:45.118Z,85.03
2018-07-22T04:18:45.140Z,84.74
2018-07-22T04:19:59.825Z,84.36
2018-07-22T04:20:45.186Z,84.55
2018-07-22T04:21:45.215Z,84.55
2018-07-22T04:22:44.978Z,84.89
2018-07-22T04:23:45.260Z,85.61
2018-07-22T04:24:45.283Z,85.13
2018-07-22T04:25:45.309Z,85.13
2018-07-22T04:26:45.335Z,84.84
2018-07-22T04:28:45.378Z,84.07
2018-07-22T04:29:45.405Z,83.69
2018-07-22T04:30:45.428Z,83.78
2018-07-22T04:31:45.452Z,83.49
2018-07-22T04:32:45.486Z,82.96
2018-07-22T04:33:45.499Z,82.96
2018-07-22T04:34:45.523Z,83.06
2018-07-22T04:36:00.211Z,83.25
2018-07-22T04:36:45.572Z,83.15
2018-07-22T04:37:45.598Z,83.34
2018-07-22T04:38:45.629Z,84.11
2018-07-22T04:39:45.642Z,84.69
2018-07-22T04:40:45.716Z,85.36
2018-07-22T04:41:45.691Z,84.69
2018-07-22T04:42:45.717Z,84.59
2018-07-22T04:43:45.741Z,85.27
2018-07-22T04:44:45.770Z,85.17
2018-07-22T04:45:45.789Z,84.69
2018-07-22T04:46:45.820Z,84.69
2018-07-22T04:47:45.839Z,83.92
2018-07-22T04:48:45.873Z,83.86
2018-07-22T04:49:45.889Z,83.19
2018-07-22T04:51:00.575Z,82.32
2018-07-22T04:51:45.941Z,81.56
2018-07-22T04:52:46.061Z,81.75
2018-07-22T04:53:45.983Z,81.65
2018-07-22T04:54:46.009Z,81.56
2018-07-22T04:55:46.036Z,81.98
2018-07-22T04:56:46.058Z,82.56
2018-07-22T04:57:46.082Z,83.04
2018-07-22T04:58:46.106Z,83.04
2018-07-22T05:01:45.923Z,82.37
2018-07-22T05:02:46.207Z,82.65
2018-07-22T05:03:46.227Z,82.65
2018-07-22T05:04:46.253Z,83.23
2018-07-22T05:05:46.280Z,83.72
2018-07-22T05:06:46.301Z,83.14
2018-07-22T05:07:46.327Z,83.23
2018-07-22T05:08:46.350Z,82.41
2018-07-22T05:09:46.120Z,81.73
2018-07-22T05:10:46.401Z,80.87
2018-07-22T05:11:46.172Z,80.77
2018-07-22T05:12:46.449Z,81.35
2018-07-22T05:13:46.471Z,81.48
2018-07-22T05:14:46.500Z,82.06
2018-07-22T05:15:46.524Z,81.58
2018-07-22T05:16:46.550Z,81.48
2018-07-22T05:17:46.572Z,79.17
2018-07-22T05:18:46.596Z,80.04
2018-07-22T05:19:46.621Z,80.04
2018-07-22T05:20:46.645Z,81.24
2018-07-22T05:21:46.672Z,79.17
2018-07-22T05:23:01.361Z,78.02
2018-07-22T05:23:46.729Z,77.25
2018-07-22T05:24:46.746Z,77
2018-07-22T05:25:46.511Z,76.23
2018-07-22T05:26:46.796Z,75.84
2018-07-22T05:27:46.819Z,76.09
2018-07-22T05:28:46.844Z,76.13
2018-07-22T05:29:46.867Z,76.42
2018-07-22T05:30:46.897Z,78.06
2018-07-22T05:31:46.922Z,77.19
2018-07-22T05:32:46.944Z,76.9
2018-07-22T05:33:46.969Z,77
2018-07-22T05:34:46.994Z,77.09
2018-07-22T05:36:46.785Z,77.28
2018-07-22T05:37:47.066Z,77.48
2018-07-22T05:39:01.757Z,76.55
2018-07-22T05:39:47.124Z,76.42
2018-07-22T05:40:47.155Z,77.13
2018-07-22T05:41:47.174Z,76.17
2018-07-22T05:42:47.192Z,75.4
2018-07-22T05:44:47.243Z,76.07
2018-07-22T05:45:47.266Z,75.59
2018-07-22T05:46:47.292Z,75.68
2018-07-22T05:47:47.315Z,75.97
2018-07-22T05:48:47.342Z,75.2
2018-07-22T05:49:47.367Z,75.53
2018-07-22T05:50:47.393Z,74.95
2018-07-22T05:51:47.417Z,74.27
2018-07-22T05:52:47.441Z,74.27
2018-07-22T05:53:47.213Z,74.47
2018-07-22T05:55:02.153Z,73.41
2018-07-22T05:55:47.516Z,73.5
2018-07-22T05:56:47.547Z,73.6
2018-07-22T05:57:47.566Z,73.69
2018-07-22T05:58:47.592Z,73.69
2018-07-22T05:59:47.617Z,74.57
2018-07-22T06:00:47.641Z,75.14
2018-07-22T06:01:47.412Z,74.21
2018-07-22T06:02:47.699Z,74.02
2018-07-22T06:03:47.718Z,74.31
2018-07-22T06:04:47.742Z,74.41
2018-07-22T06:05:47.767Z,75.18
2018-07-22T06:06:47.789Z,73.44
2018-07-22T06:07:47.831Z,73.35
2018-07-22T06:08:47.841Z,73.73
2018-07-22T06:09:47.872Z,74.31
2018-07-22T06:11:02.554Z,74.31
2018-07-22T06:11:47.973Z,73.93
2018-07-22T06:12:47.947Z,73.93
2018-07-22T06:13:47.710Z,73.93
2018-07-22T06:14:47.992Z,74.41
2018-07-22T06:15:48.019Z,74.69
2018-07-22T06:16:48.149Z,74.89
2018-07-22T06:17:48.074Z,74.6
2018-07-22T06:18:47.835Z,74.02
2018-07-22T06:19:48.121Z,73.35
2018-07-22T06:20:48.145Z,73.58
2018-07-22T06:21:48.170Z,73.58
2018-07-22T06:22:48.195Z,72.61
2018-07-22T06:23:48.222Z,73.19
2018-07-22T06:24:48.246Z,73.58
2018-07-22T06:26:02.932Z,73.38
2018-07-22T06:26:48.296Z,72.55
2018-07-22T06:27:48.320Z,72.64
2018-07-22T06:28:48.089Z,71.1
2018-07-22T06:29:48.374Z,71.39
2018-07-22T06:30:48.401Z,71.88
2018-07-22T06:31:48.423Z,70.72
2018-07-22T06:32:48.449Z,70.07
2018-07-22T06:33:48.216Z,68.91
2018-07-22T06:34:48.500Z,69.3
2018-07-22T06:35:48.538Z,69.33
2018-07-22T06:36:48.550Z,69.04
2018-07-22T06:37:48.321Z,68.85
2018-07-22T06:38:48.604Z,67.91
2018-07-22T06:39:48.372Z,67.05
2018-07-22T06:40:48.658Z,67.53
2018-07-22T06:41:48.679Z,67.63
2018-07-22T06:42:48.707Z,66.27
2018-07-22T06:43:48.730Z,67.05
2018-07-22T06:44:48.756Z,65.14
2018-07-22T06:45:48.789Z,64.27
2018-07-22T06:46:48.810Z,63.49
2018-07-22T06:47:48.835Z,64.27
2018-07-22T06:49:48.629Z,62.17
2018-07-22T06:52:48.965Z,61.4
2018-07-22T06:53:48.992Z,60.04
2018-07-22T06:54:49.018Z,60.39
2018-07-22T06:55:49.045Z,58.09
2018-07-22T06:56:49.071Z,58.19
2018-07-22T06:58:03.760Z,56.86
2018-07-22T06:58:49.126Z,55.65
2018-07-22T06:59:49.152Z,55.46
2018-07-22T07:00:49.302Z,54.8
2018-07-22T07:01:49.205Z,54.35
2018-07-22T07:02:49.237Z,53.77
2018-07-22T07:04:49.288Z,52.11
2018-07-22T07:05:49.317Z,52.89
2018-07-22T07:06:49.086Z,53.01
2018-07-22T07:07:49.370Z,52.36
2018-07-22T07:08:49.401Z,52.65
2018-07-22T07:09:49.176Z,50.9
2018-07-22T07:10:49.512Z,50.04
2018-07-22T07:11:49.487Z,49.05
2018-07-22T07:12:49.513Z,49.63
2018-07-22T07:14:04.207Z,49.44
2018-07-22T07:14:49.573Z,49.05
2018-07-22T07:15:49.600Z,47.9
2018-07-22T07:16:49.629Z,48.24
2018-07-22T07:17:49.657Z,47.09
2018-07-22T07:18:49.684Z,46.97
2018-07-22T07:19:49.720Z,47.17
2018-07-22T07:20:49.852Z,47.19
2018-07-22T07:21:49.775Z,46.85
2018-07-22T07:22:49.806Z,47.05
2018-07-22T07:24:49.866Z,44.6
2018-07-22T07:25:49.900Z,44.78
2018-07-22T07:26:49.744Z,45.54
2018-07-22T07:27:49.696Z,46.1
2018-07-22T07:28:49.983Z,46.76
2018-07-22T07:30:04.682Z,45.76
2018-07-22T07:30:50.043Z,46.64
2018-07-22T07:31:50.073Z,47.2
2018-07-22T07:32:50.104Z,47.59
2018-07-22T07:33:50.129Z,47.59
2018-07-22T07:34:50.163Z,48.54
2018-07-22T07:35:50.290Z,49.02
2018-07-22T07:37:50.245Z,50.26
2018-07-22T07:38:50.277Z,50.46
2018-07-22T07:39:50.303Z,50.75
2018-07-22T07:40:50.332Z,49.58
2018-07-22T07:41:50.362Z,49.39
2018-07-22T07:42:50.134Z,49.49
2018-07-22T07:43:50.167Z,49.29
2018-07-22T07:44:50.449Z,49.87
2018-07-22T07:46:05.138Z,50.36
2018-07-22T07:46:50.510Z,47.93
2018-07-22T07:47:50.534Z,47.93
2018-07-22T07:48:50.561Z,48.13
2018-07-22T07:49:50.588Z,48.51
2018-07-22T07:50:50.621Z,46.98
2018-07-22T07:51:50.647Z,46.59
2018-07-22T07:52:50.683Z,47.17
2018-07-22T07:53:50.704Z,48.41
2018-07-22T07:55:50.759Z,48.34
2018-07-22T07:57:50.562Z,45.67
2018-07-22T07:58:50.588Z,44.03
2018-07-22T07:59:50.615Z,45
2018-07-22T08:01:05.566Z,45.49
2018-07-22T08:01:50.930Z,45.88
2018-07-22T08:02:50.703Z,45.71
2018-07-22T08:03:51.044Z,44.44
2018-07-22T08:04:51.017Z,43.85
2018-07-22T08:05:51.059Z,44.56
2018-07-22T08:06:51.075Z,44.27
2018-07-22T08:07:51.104Z,42.65
2018-07-22T08:08:50.879Z,42.16
2018-07-22T08:09:51.174Z,41.99
2018-07-22T08:11:51.338Z,41.07
2018-07-22T08:12:51.252Z,41.17
2018-07-22T08:13:51.281Z,39.88
2018-07-22T08:14:51.311Z,39.49
2018-07-22T08:15:51.344Z,39.28
2018-07-22T08:16:51.372Z,39.55
2018-07-22T08:17:51.401Z,39.53
2018-07-22T08:18:51.173Z,39.62
2018-07-22T08:19:51.464Z,38.06
2018-07-22T08:20:51.491Z,40.23
2018-07-22T08:21:51.869Z,38.28
2018-07-22T08:22:51.556Z,39.08
2018-07-22T08:23:51.582Z,38.67
2018-07-22T08:24:51.353Z,39.75
2018-07-22T08:25:51.384Z,39.62
2018-07-22T08:26:51.708Z,40.11
2018-07-22T08:27:51.443Z,40.97
2018-07-22T08:29:51.761Z,41.44
2018-07-22T08:30:51.792Z,41.25
2018-07-22T08:31:51.829Z,40.56
2018-07-22T08:33:06.515Z,41.03
2018-07-22T08:33:51.886Z,40.55
2018-07-22T08:34:51.913Z,40.45
2018-07-22T08:35:51.945Z,40.56
2018-07-22T08:36:51.714Z,40.58
2018-07-22T08:37:52.106Z,39.61
2018-07-22T08:38:52.034Z,40
2018-07-22T08:40:52.092Z,40.11
2018-07-22T08:41:52.122Z,39.65
2018-07-22T08:42:52.153Z,39.55
2018-07-22T08:43:52.184Z,38.77
2018-07-22T08:44:51.957Z,40.16
2018-07-22T08:45:52.245Z,40.23
2018-07-22T08:46:52.277Z,39.26
2018-07-22T08:47:52.048Z,39.94
2018-07-22T08:49:06.998Z,39.26
2018-07-22T08:49:52.371Z,38.55
2018-07-22T08:50:52.140Z,39.33
2018-07-22T08:51:52.428Z,38.63
2018-07-22T08:52:52.461Z,39.31
2018-07-22T08:53:52.595Z,39.51
2018-07-22T08:54:52.524Z,39.53
2018-07-22T08:55:52.547Z,39.72
2018-07-22T08:56:52.581Z,39.06
2018-07-22T08:57:52.615Z,37.41
2018-07-22T08:58:52.716Z,38.69
2018-07-22T08:59:52.671Z,37.81
2018-07-22T09:01:52.731Z,38.42
2018-07-22T09:02:52.762Z,38.81
2018-07-22T09:03:52.794Z,38.3
2018-07-22T09:05:07.485Z,38.1
2018-07-22T09:05:52.861Z,37.29
2018-07-22T09:06:52.885Z,38.18
2018-07-22T09:07:52.917Z,38.28
2018-07-22T09:08:52.949Z,38.2
2018-07-22T09:09:52.978Z,37.83
2018-07-22T09:10:53.006Z,36.96
2018-07-22T09:11:53.278Z,36.1
2018-07-22T09:13:53.099Z,34.86
2018-07-22T09:14:53.141Z,34
2018-07-22T09:15:53.162Z,33.26
2018-07-22T09:16:53.198Z,31.13
2018-07-22T09:17:53.053Z,31.13
2018-07-22T09:18:53.272Z,30.55
2018-07-22T09:19:53.289Z,30.25
2018-07-22T09:21:07.986Z,31.05
2018-07-22T09:21:53.353Z,30.68
2018-07-22T09:22:53.386Z,29.69
2018-07-22T09:23:53.415Z,29.79
2018-07-22T09:24:53.454Z,30.08
2018-07-22T09:25:53.483Z,29.31
2018-07-22T09:26:53.259Z,29.72
2018-07-22T09:27:53.291Z,29.72
2018-07-22T09:28:53.580Z,29.62
2018-07-22T09:29:53.612Z,29.41
2018-07-22T09:30:53.646Z,30.76
2018-07-22T09:31:53.677Z,30.65
2018-07-22T09:32:53.713Z,30.91
2018-07-22T09:33:53.746Z,29.85
2018-07-22T09:34:53.777Z,29.86
2018-07-22T09:36:08.599Z,30.14
2018-07-22T09:36:53.844Z,31.22
2018-07-22T09:37:53.873Z,31.89
2018-07-22T09:38:53.909Z,32.46
2018-07-22T09:39:53.943Z,33.33
2018-07-22T09:40:53.976Z,33.2
2018-07-22T09:41:54.155Z,33.48
2018-07-22T09:42:54.052Z,34.34
2018-07-22T09:44:54.101Z,32.42
2018-07-22T09:45:54.138Z,32.81
2018-07-22T09:46:54.170Z,32.9
2018-07-22T09:47:54.207Z,32.25
2018-07-22T09:48:54.235Z,30.91
2018-07-22T09:49:54.268Z,30.35
2018-07-22T09:50:54.298Z,30.46
2018-07-22T09:51:54.332Z,30
2018-07-22T09:52:54.368Z,30.02
2018-07-22T09:53:54.400Z,30.69
2018-07-22T09:54:54.170Z,29.89
2018-07-22T09:55:54.467Z,28.41
2018-07-22T09:56:54.495Z,28.99
2018-07-22T09:57:54.270Z,29.77
2018-07-22T09:58:54.556Z,30.25
2018-07-22T09:59:54.334Z,29.96
2018-07-22T10:01:54.664Z,30.53
2018-07-22T10:02:54.689Z,29.83
2018-07-22T10:03:54.734Z,30.73
2018-07-22T10:04:54.912Z,30.15
2018-07-22T10:05:54.788Z,30.35
2018-07-22T10:06:54.820Z,30.14
2018-07-22T10:08:09.515Z,31.23
2018-07-22T10:08:54.884Z,30.05
2018-07-22T10:09:54.659Z,29.76
2018-07-22T10:10:54.948Z,29.58
2018-07-22T10:11:54.979Z,29.37
2018-07-22T10:12:55.012Z,29.96
2018-07-22T10:13:55.048Z,32.18
2018-07-22T10:15:55.115Z,30.74
2018-07-22T10:16:55.146Z,30.95
2018-07-22T10:17:55.184Z,30.07
2018-07-22T10:18:55.211Z,30.56
2018-07-22T10:19:55.242Z,32.28
2018-07-22T10:20:55.273Z,30.91
2018-07-22T10:21:55.305Z,31.1
2018-07-22T10:22:55.337Z,30.99
2018-07-22T10:24:10.035Z,32.07
2018-07-22T10:24:55.404Z,32.45
2018-07-22T10:25:55.436Z,32.82
2018-07-22T10:26:55.473Z,33.02
2018-07-22T10:27:55.498Z,33.98
2018-07-22T10:28:55.533Z,33.89
2018-07-22T10:29:55.564Z,33.98
2018-07-22T10:30:55.606Z,33.8
2018-07-22T10:31:55.371Z,33.43
2018-07-22T10:33:55.690Z,33.28
2018-07-22T10:35:55.879Z,34.93
2018-07-22T10:36:55.788Z,34.74
2018-07-22T10:37:55.822Z,34.84
2018-07-22T10:40:10.552Z,34.96
2018-07-22T10:40:55.663Z,34.94
2018-07-22T10:41:55.947Z,34.86
2018-07-22T10:42:55.977Z,33.89
2018-07-22T10:43:56.009Z,34.39
2018-07-22T10:44:55.785Z,32.35
2018-07-22T10:45:56.073Z,31.77
2018-07-22T10:46:56.105Z,32.68
2018-07-22T10:48:56.173Z,31.51
2018-07-22T10:50:56.284Z,32.28
2018-07-22T10:51:56.265Z,31.6
2018-07-22T10:52:56.301Z,31.02
2018-07-22T10:53:56.329Z,31.99
2018-07-22T10:54:56.360Z,31.63
2018-07-22T10:56:11.056Z,32.01
2018-07-22T10:56:56.423Z,32.2
2018-07-22T10:57:56.456Z,32.69
2018-07-22T10:58:56.487Z,31.32
2018-07-22T10:59:56.525Z,31.02
2018-07-22T11:00:56.551Z,31.41
2018-07-22T11:01:56.326Z,30.94
2018-07-22T11:02:56.357Z,30.73
2018-07-22T11:03:56.651Z,30.53
2018-07-22T11:04:56.679Z,31.01
2018-07-22T11:05:56.712Z,30.52
2018-07-22T11:06:56.742Z,31.29
2018-07-22T11:07:56.775Z,31.87
2018-07-22T11:08:56.806Z,32.07
2018-07-22T11:09:56.842Z,33.36
2018-07-22T11:11:11.536Z,31.02
2018-07-22T11:11:56.903Z,31.15
2018-07-22T11:12:56.677Z,31.04
2018-07-22T11:13:56.965Z,30.56
2018-07-22T11:14:57.215Z,31.73
2018-07-22T11:15:57.045Z,31.05
2018-07-22T11:16:56.803Z,30.46
2018-07-22T11:18:57.131Z,31.92
2018-07-22T11:19:57.169Z,30.94
2018-07-22T11:21:57.220Z,31.73
2018-07-22T11:22:57.256Z,30.27
2018-07-22T11:23:57.285Z,30.76
2018-07-22T11:24:57.317Z,29.87
2018-07-22T11:25:57.357Z,30.85
2018-07-22T11:26:57.384Z,31.7
2018-07-22T11:27:57.420Z,30.91
2018-07-22T11:28:57.655Z,30.91
2018-07-22T11:29:57.476Z,31.7
2018-07-22T11:30:57.251Z,31.1
2018-07-22T11:31:57.537Z,31.92
2018-07-22T11:32:57.573Z,31.15
2018-07-22T11:33:57.604Z,30.84
2018-07-22T11:34:57.635Z,30.94
2018-07-22T11:35:57.453Z,30.53
2018-07-22T11:37:57.730Z,30.65
2018-07-22T11:38:57.766Z,30.84
2018-07-22T11:39:57.538Z,30.95
2018-07-22T11:40:57.828Z,32.12
2018-07-22T11:41:57.865Z,31.99
2018-07-22T11:43:12.555Z,31.99
2018-07-22T11:43:58.165Z,31.58
2018-07-22T11:44:57.953Z,31.97
2018-07-22T11:45:57.733Z,32.64
2018-07-22T11:46:57.864Z,34.11
2018-07-22T11:47:58.050Z,33.44
2018-07-22T11:48:58.087Z,32.98
2018-07-22T11:49:58.114Z,31.73
2018-07-22T11:50:58.145Z,31.81
2018-07-22T11:51:58.180Z,32.09
2018-07-22T11:52:57.950Z,33.14
2018-07-22T11:53:58.241Z,33
2018-07-22T11:54:58.271Z,34.38
2018-07-22T11:55:58.304Z,34.26
2018-07-22T11:56:58.336Z,35.22
2018-07-22T11:57:58.365Z,35.61
2018-07-22T11:59:13.062Z,35.97
2018-07-22T11:59:58.433Z,35.21
2018-07-22T12:00:58.466Z,35.89
2018-07-22T12:01:58.492Z,35.21
2018-07-22T12:02:58.630Z,35.6
2018-07-22T12:03:58.298Z,35.99
2018-07-22T12:04:58.586Z,35.61
2018-07-22T12:05:58.753Z,36
2018-07-22T12:07:58.680Z,34.3
2018-07-22T12:08:58.711Z,33.51
2018-07-22T12:09:58.746Z,34.08
2018-07-22T12:10:58.777Z,34.08
2018-07-22T12:11:58.806Z,34.47
2018-07-22T12:12:58.869Z,34.47
2018-07-22T12:13:58.866Z,33.89
2018-07-22T12:15:13.563Z,34.96
2018-07-22T12:15:58.932Z,35.27
2018-07-22T12:16:58.964Z,34
2018-07-22T12:17:58.993Z,33.72
2018-07-22T12:18:59.023Z,33.53
2018-07-22T12:19:59.056Z,33.33
2018-07-22T12:20:59.086Z,34.39
2018-07-22T12:21:59.118Z,33.62
2018-07-22T12:22:59.152Z,34.59
2018-07-22T12:23:59.181Z,33.23
2018-07-22T12:24:59.212Z,33.04
2018-07-22T12:26:59.271Z,36
2018-07-22T12:27:59.349Z,36.38
2018-07-22T12:28:59.338Z,36.44
2018-07-22T12:29:59.109Z,37.81
2018-07-22T12:31:14.062Z,37.52
2018-07-22T12:31:59.433Z,37.32
2018-07-22T12:33:59.493Z,38.35
2018-07-22T12:34:59.522Z,38.63
2018-07-22T12:35:59.551Z,38.16
2018-07-22T12:36:59.580Z,38.38
2018-07-22T12:37:59.615Z,38.26
2018-07-22T12:38:59.644Z,36.82
2018-07-22T12:39:59.676Z,36.44
2018-07-22T12:41:59.737Z,36.46
2018-07-22T12:42:59.768Z,36.67
2018-07-22T12:43:59.801Z,36.38
2018-07-22T12:44:59.830Z,36.46
2018-07-22T12:46:14.527Z,36.47
2018-07-22T12:46:59.890Z,36.47
2018-07-22T12:47:59.921Z,35.81
2018-07-22T12:48:59.952Z,35.61
2018-07-22T12:49:59.986Z,36.67
2018-07-22T12:51:00.016Z,36.49
2018-07-22T12:52:00.058Z,36.28
2018-07-22T12:53:00.076Z,36.75
2018-07-22T12:55:00.136Z,37.6
2018-07-22T12:56:00.170Z,37.4
2018-07-22T12:57:00.199Z,38.18
2018-07-22T12:58:00.230Z,36.93
2018-07-22T12:59:00.101Z,36.63
2018-07-22T13:00:00.289Z,37.24
2018-07-22T13:01:00.320Z,36.47
2018-07-22T13:02:00.101Z,36.47
2018-07-22T13:03:00.384Z,36.73
2018-07-22T13:04:00.411Z,37.41
2018-07-22T13:05:00.446Z,36.85
2018-07-22T13:06:00.473Z,36.26
2018-07-22T13:07:00.687Z,36.67
2018-07-22T13:08:00.533Z,35.89
2018-07-22T13:09:00.565Z,36
2018-07-22T13:10:00.596Z,36.59
2018-07-22T13:11:00.628Z,36.02
2018-07-22T13:12:00.657Z,34.96
2018-07-22T13:13:00.763Z,35.44
2018-07-22T13:14:00.718Z,36.02
2018-07-22T13:15:00.748Z,35.93
2018-07-22T13:16:00.786Z,35.83
2018-07-22T13:17:00.808Z,35.06
2018-07-22T13:18:15.506Z,36.02
2018-07-22T13:19:01.047Z,36.1
2018-07-22T13:20:00.906Z,35.61
2018-07-22T13:21:00.932Z,35.81
2018-07-22T13:22:00.962Z,35.91
2018-07-22T13:23:00.993Z,36.47
2018-07-22T13:25:01.056Z,37.45
2018-07-22T13:26:01.088Z,36.57
2018-07-22T13:27:01.114Z,36.65
2018-07-22T13:28:01.149Z,36.63
2018-07-22T13:29:01.182Z,36.85
2018-07-22T13:30:01.249Z,36.55
2018-07-22T13:31:00.980Z,36.36
2018-07-22T13:32:01.276Z,36.08
2018-07-22T13:33:01.306Z,36.96
2018-07-22T13:34:15.991Z,36.94
2018-07-22T13:35:01.360Z,37.02
2018-07-22T13:36:01.387Z,37.22
2018-07-22T13:37:01.428Z,37.32
2018-07-22T13:38:01.487Z,37.43
2018-07-22T13:39:01.484Z,37.54
2018-07-22T13:40:01.256Z,37.71
2018-07-22T13:41:01.544Z,37.79
2018-07-22T13:42:01.315Z,37.99
2018-07-22T13:45:01.664Z,38.87
2018-07-22T13:46:01.694Z,38.96
2018-07-22T13:47:01.466Z,38.69
2018-07-22T13:48:01.753Z,38.96